createdAt,value
2019-02-28T00:22:49.432Z,11.93
2019-02-28T00:25:17.962Z,8.43
2019-02-28T00:27:46.379Z,11.33
2019-02-28T00:30:17.842Z,8.40
2019-02-28T00:32:46.323Z,8.17
2019-02-28T00:35:14.743Z,12.00
2019-02-28T00:37:43.163Z,10.57
2019-02-28T00:40:12.018Z,8.57
2019-02-28T00:42:40.426Z,13.23
2019-02-28T00:45:14.014Z,8.87
2019-02-28T00:47:42.706Z,11.27
2019-02-28T00:50:11.272Z,12.53
2019-02-28T00:52:39.695Z,7.40
2019-02-28T00:55:10.815Z,5.93
2019-02-28T00:57:39.252Z,4.63
2019-02-28T01:00:16.406Z,5.53
2019-02-28T01:02:44.829Z,4.90
2019-02-28T01:05:13.491Z,6.50
2019-02-28T01:07:41.902Z,6.40
2019-02-28T01:10:11.854Z,6.10
2019-02-28T01:12:40.279Z,5.87
2019-02-28T01:15:16.994Z,4.23
2019-02-28T01:17:45.477Z,4.83
2019-02-28T01:20:16.309Z,4.63
2019-02-28T01:22:44.377Z,5.27
2019-02-28T01:25:14.933Z,6.73
2019-02-28T01:27:43.356Z,5.43
2019-02-28T01:30:13.882Z,7.07
2019-02-28T01:32:42.368Z,7.07
2019-02-28T01:35:10.845Z,6.33
2019-02-28T01:37:39.272Z,7.23
2019-02-28T01:40:12.571Z,5.30
2019-02-28T01:42:40.991Z,6.27
2019-02-28T01:45:11.911Z,6.60
2019-02-28T01:47:40.396Z,4.27
2019-02-28T01:50:11.422Z,4.10
2019-02-28T01:52:44.517Z,6.70
2019-02-28T01:55:11.026Z,7.43
2019-02-28T01:57:42.898Z,4.63
2019-02-28T02:00:17.727Z,5.03
2019-02-28T04:04:18.200Z,5.00
2019-02-28T04:06:46.615Z,7.50
2019-02-28T04:09:15.012Z,8.33
2019-02-28T04:11:43.418Z,5.40
2019-02-28T04:14:11.838Z,8.07
2019-02-28T04:16:40.250Z,7.03
2019-02-28T04:19:08.671Z,6.43
2019-02-28T04:21:37.077Z,12.03
2019-02-28T04:24:12.458Z,9.10
2019-02-28T04:26:35.642Z,9.50
2019-02-28T04:29:04.306Z,8.70
2019-02-28T04:31:32.716Z,8.47
2019-02-28T04:34:01.137Z,7.17
2019-02-28T04:36:35.506Z,7.10
2019-02-28T04:38:59.707Z,6.83
2019-02-28T04:41:32.642Z,6.93
2019-02-28T04:43:58.251Z,6.77
2019-02-28T04:46:28.302Z,6.77
2019-02-28T04:48:56.773Z,6.33
2019-02-28T04:51:25.293Z,7.07
2019-02-28T04:53:53.831Z,7.80
2019-02-28T04:56:22.245Z,6.77
2019-02-28T04:58:50.639Z,6.33
2019-02-28T05:01:19.045Z,5.43
2019-02-28T05:03:47.445Z,5.53
2019-02-28T05:06:18.370Z,7.40
2019-02-28T05:08:45.988Z,5.17
2019-02-28T05:11:14.401Z,6.93
2019-02-28T05:13:48.226Z,7.50
2019-02-28T05:16:13.182Z,6.13
2019-02-28T05:18:41.730Z,6.47
2019-02-28T05:21:10.140Z,9.20
2019-02-28T05:23:38.564Z,8.37
2019-02-28T05:26:07.766Z,8.33
2019-02-28T05:28:40.160Z,7.23
2019-02-28T05:31:06.305Z,8.63
2019-02-28T05:33:34.756Z,7.60
2019-02-28T05:36:04.306Z,8.67
2019-02-28T05:38:32.846Z,8.77
2019-02-28T05:41:01.583Z,10.47
2019-02-28T05:43:32.205Z,7.63
2019-02-28T05:46:00.125Z,6.17
2019-02-28T05:48:28.534Z,10.73
2019-02-28T05:50:56.947Z,9.87
2019-02-28T05:53:25.353Z,7.17
2019-02-28T05:55:58.826Z,8.50
2019-02-28T05:58:23.896Z,8.03
2019-02-28T06:00:52.309Z,11.83
2019-02-28T06:03:20.725Z,10.40
2019-02-28T06:05:49.141Z,9.77
2019-02-28T06:08:17.556Z,11.83
2019-02-28T06:10:46.422Z,10.83
2019-02-28T06:13:15.291Z,12.17
2019-02-28T06:15:45.213Z,13.57
2019-02-28T06:18:14.015Z,13.87
2019-02-28T06:20:42.433Z,10.60
2019-02-28T06:23:10.845Z,11.90
2019-02-28T06:25:39.328Z,12.53
2019-02-28T06:28:07.760Z,10.67
2019-02-28T06:30:36.163Z,9.57
2019-02-28T06:33:04.641Z,8.07
2019-02-28T06:35:33.051Z,13.47
2019-02-28T06:38:01.461Z,9.37
2019-02-28T06:40:32.598Z,7.77
2019-02-28T06:42:59.988Z,8.00
2019-02-28T06:45:28.386Z,7.47
2019-02-28T06:47:56.800Z,10.30
2019-02-28T06:50:25.196Z,8.53
2019-02-28T06:52:56.452Z,12.17
2019-02-28T06:55:25.297Z,8.70
2019-02-28T06:57:53.769Z,8.83
2019-02-28T07:00:22.581Z,14.37
2019-02-28T07:02:51.002Z,7.90
2019-02-28T07:05:24.855Z,10.73
2019-02-28T07:07:50.141Z,9.47
2019-02-28T07:10:18.852Z,9.33
2019-02-28T07:12:47.537Z,7.73
2019-02-28T07:15:16.012Z,10.53
2019-02-28T07:17:46.529Z,12.07
2019-02-28T07:20:20.619Z,8.93
2019-02-28T07:22:54.636Z,11.67
2019-02-28T07:25:19.163Z,13.87
2019-02-28T07:27:47.574Z,9.70
2019-02-28T07:30:18.906Z,7.10
2019-02-28T07:32:54.538Z,8.87
2019-02-28T07:35:22.949Z,8.30
2019-02-28T07:37:54.367Z,10.07
2019-02-28T07:40:21.510Z,13.73
2019-02-28T07:42:49.928Z,25.20
2019-02-28T07:45:18.331Z,29.83
2019-02-28T07:47:51.700Z,29.03
2019-02-28T07:50:17.337Z,31.37
2019-02-28T07:52:45.802Z,25.13
2019-02-28T07:55:16.827Z,27.03
2019-02-28T07:57:45.233Z,25.03
2019-02-28T08:00:24.442Z,21.17
2019-02-28T08:02:52.994Z,22.70
2019-02-28T08:05:21.765Z,21.43
2019-02-28T08:07:52.575Z,16.20
2019-02-28T08:10:25.509Z,19.43
2019-02-28T08:12:54.030Z,19.43
2019-02-28T08:15:24.084Z,25.70
2019-02-28T08:17:52.597Z,23.87
2019-02-28T08:20:21.398Z,18.70
2019-02-28T08:22:49.882Z,21.60
2019-02-28T08:25:18.280Z,18.73
2019-02-28T08:27:46.699Z,17.90
2019-02-28T08:30:21.061Z,22.80
2019-02-28T08:32:49.899Z,20.47
2019-02-28T08:35:18.358Z,20.60
2019-02-28T08:37:46.849Z,19.80
2019-02-28T08:40:20.771Z,21.30
2019-02-28T08:42:50.001Z,22.77
2019-02-28T08:45:18.848Z,20.00
2019-02-28T08:47:47.346Z,19.90
2019-02-28T08:50:23.447Z,19.37
2019-02-28T08:53:02.268Z,23.73
2019-02-28T08:55:44.264Z,23.03
2019-02-28T08:58:11.784Z,16.83
2019-02-28T09:00:40.207Z,21.97
2019-02-28T09:03:08.618Z,20.53
2019-02-28T09:05:37.033Z,22.97
2019-02-28T09:08:05.442Z,18.73
2019-02-28T09:10:33.865Z,20.13
2019-02-28T09:13:02.273Z,21.00
2019-02-28T09:15:31.334Z,19.43
2019-02-28T09:18:07.346Z,20.90
2019-02-28T09:20:36.092Z,21.03
2019-02-28T09:23:14.442Z,21.20
2019-02-28T09:25:42.863Z,20.03
2019-02-28T09:28:13.016Z,19.83
2019-02-28T09:30:47.424Z,21.47
2019-02-28T09:33:15.872Z,21.87
2019-02-28T09:35:46.236Z,24.00
2019-02-28T09:38:14.566Z,19.20
2019-02-28T09:40:43.028Z,20.17
2019-02-28T09:43:11.471Z,19.93
2019-02-28T09:45:41.066Z,23.03
2019-02-28T09:48:10.235Z,20.63
2019-02-28T09:50:38.849Z,22.10
2019-02-28T09:53:07.319Z,21.93
2019-02-28T09:55:36.190Z,22.57
2019-02-28T09:58:04.671Z,18.27
2019-02-28T10:00:33.560Z,23.20
2019-02-28T10:03:02.003Z,21.13
2019-02-28T10:05:30.456Z,21.30
2019-02-28T10:08:02.868Z,29.97
2019-02-28T10:10:32.152Z,23.57
2019-02-28T10:13:00.656Z,21.70
2019-02-28T10:15:29.093Z,19.43
2019-02-28T10:18:00.732Z,21.33
2019-02-28T10:20:38.932Z,23.57
2019-02-28T10:23:07.371Z,16.90
2019-02-28T10:25:41.055Z,16.70
2019-02-28T10:28:06.037Z,19.27
2019-02-28T10:30:34.498Z,18.43
2019-02-28T10:33:03.080Z,15.73
2019-02-28T10:35:33.481Z,21.83
2019-02-28T10:38:01.669Z,19.33
2019-02-28T10:40:31.364Z,21.53
2019-02-28T10:42:59.815Z,20.30
2019-02-28T10:45:28.587Z,17.63
2019-02-28T10:47:57.040Z,19.77
2019-02-28T10:50:33.324Z,19.67
2019-02-28T10:53:04.046Z,18.90
2019-02-28T10:55:30.198Z,21.77
2019-02-28T10:57:58.717Z,18.60
2019-02-28T11:00:32.824Z,16.90
2019-02-28T11:03:02.280Z,19.90
2019-02-28T11:05:35.931Z,18.97
2019-02-28T11:08:05.717Z,19.17
2019-02-28T11:10:42.376Z,17.50
2019-02-28T11:13:22.193Z,18.40
2019-02-28T11:15:51.330Z,18.70
2019-02-28T11:18:19.824Z,21.07
2019-02-28T11:20:58.170Z,22.87
2019-02-28T11:23:27.205Z,19.43
2019-02-28T11:25:55.779Z,18.40
2019-02-28T11:28:27.772Z,20.37
2019-02-28T11:30:55.107Z,19.40
2019-02-28T11:33:23.686Z,18.23
2019-02-28T11:35:57.830Z,18.53
2019-02-28T11:38:32.553Z,19.03
2019-02-28T11:41:01.006Z,16.97
2019-02-28T11:43:29.501Z,19.97
2019-02-28T11:46:04.609Z,23.07
2019-02-28T11:48:33.046Z,19.57
2019-02-28T11:51:01.772Z,20.80
2019-02-28T11:53:40.575Z,18.10
2019-02-28T11:56:09.366Z,21.07
2019-02-28T11:58:37.775Z,22.27
2019-02-28T12:01:10.201Z,19.10
2019-02-28T12:03:36.588Z,18.90
2019-02-28T12:06:06.801Z,20.77
2019-02-28T12:08:35.629Z,19.43
2019-02-28T12:11:04.101Z,18.40
2019-02-28T12:13:32.537Z,20.03
2019-02-28T12:16:00.928Z,18.87
2019-02-28T12:18:29.348Z,18.40
2019-02-28T12:20:58.652Z,17.67
2019-02-28T12:23:28.455Z,20.00
2019-02-28T12:25:56.845Z,16.70
2019-02-28T12:28:25.264Z,19.03
2019-02-28T12:30:53.744Z,18.27
2019-02-28T12:33:23.345Z,18.97
2019-02-28T12:35:52.055Z,18.20
2019-02-28T12:38:20.480Z,15.90
2019-02-28T12:40:49.587Z,20.17
2019-02-28T12:43:18.780Z,19.57
2019-02-28T12:45:47.628Z,17.37
2019-02-28T12:48:16.666Z,19.10
2019-02-28T12:50:45.055Z,21.30
2019-02-28T12:53:13.479Z,16.00
2019-02-28T12:55:41.888Z,15.50
2019-02-28T12:58:10.307Z,18.03
2019-02-28T13:00:41.419Z,18.57
2019-02-28T13:03:10.274Z,18.97
2019-02-28T13:05:38.782Z,16.60
2019-02-28T13:08:13.023Z,17.93
2019-02-28T13:10:51.449Z,16.50
2019-02-28T13:13:28.800Z,16.83
2019-02-28T13:15:55.937Z,18.13
2019-02-28T13:18:24.351Z,17.00
2019-02-28T13:20:52.763Z,16.30
2019-02-28T13:23:21.489Z,17.13
2019-02-28T13:25:50.179Z,18.00
2019-02-28T13:28:23.653Z,18.47
2019-02-28T13:30:52.721Z,16.20
2019-02-28T13:33:22.620Z,18.80
2019-02-28T13:35:51.035Z,16.13
2019-02-28T13:38:19.935Z,15.60
2019-02-28T13:40:48.928Z,15.87
2019-02-28T13:43:21.001Z,16.53
2019-02-28T13:45:50.633Z,16.60
2019-02-28T13:48:25.666Z,17.03
2019-02-28T13:50:47.829Z,13.20
2019-02-28T13:53:17.756Z,13.10
2019-02-28T13:55:46.391Z,11.37
2019-02-28T13:58:17.615Z,14.07
2019-02-28T14:00:51.017Z,12.17
2019-02-28T14:03:19.426Z,11.67
2019-02-28T14:05:47.844Z,12.17
2019-02-28T14:08:16.270Z,10.33
2019-02-28T14:10:44.895Z,11.07
2019-02-28T14:13:13.410Z,12.03
2019-02-28T14:15:48.047Z,12.30
2019-02-28T14:18:16.700Z,15.03
2019-02-28T14:20:45.105Z,11.40
2019-02-28T14:23:13.774Z,16.03
2019-02-28T14:25:42.189Z,13.43
2019-02-28T14:28:10.688Z,11.17
2019-02-28T14:30:39.149Z,12.83
2019-02-28T14:33:08.504Z,16.17
2019-02-28T14:35:38.676Z,15.60
2019-02-28T14:38:07.120Z,13.83
2019-02-28T14:40:35.599Z,11.87
2019-02-28T14:43:04.106Z,14.93
2019-02-28T14:45:44.404Z,16.50
2019-02-28T14:48:12.830Z,15.60
2019-02-28T14:50:41.293Z,14.90
2019-02-28T14:53:14.317Z,18.70
2019-02-28T14:55:41.480Z,18.47
2019-02-28T14:58:09.917Z,14.30
2019-02-28T15:00:38.899Z,16.77
2019-02-28T15:03:08.896Z,18.40
2019-02-28T15:05:40.036Z,15.63
2019-02-28T15:08:11.745Z,16.23
2019-02-28T15:10:40.813Z,19.07
2019-02-28T15:13:09.325Z,18.20
2019-02-28T15:15:37.909Z,14.63
2019-02-28T15:18:06.428Z,15.37
2019-02-28T15:20:34.866Z,16.03
2019-02-28T15:23:03.407Z,16.93
2019-02-28T15:25:31.936Z,16.03
2019-02-28T15:28:00.487Z,18.87
2019-02-28T15:30:35.004Z,16.43
2019-02-28T15:33:03.635Z,15.60
2019-02-28T15:35:32.221Z,17.40
2019-02-28T15:38:00.694Z,15.97
2019-02-28T15:40:40.840Z,12.63
2019-02-28T15:43:09.998Z,15.40
2019-02-28T15:45:38.794Z,13.53
2019-02-28T15:48:07.224Z,13.93
2019-02-28T15:50:35.665Z,12.80
2019-02-28T15:53:04.929Z,10.73
2019-02-28T15:55:35.041Z,15.10
2019-02-28T15:58:05.980Z,11.50
2019-02-28T16:00:36.046Z,11.90
2019-02-28T16:03:05.522Z,13.90
2019-02-28T16:05:34.258Z,18.17
2019-02-28T16:08:09.017Z,13.60
2019-02-28T16:10:36.238Z,13.90
2019-02-28T16:13:07.074Z,16.50
2019-02-28T16:15:36.327Z,12.13
2019-02-28T16:18:08.609Z,12.00
2019-02-28T16:20:35.934Z,13.23
2019-02-28T16:23:04.434Z,12.17
2019-02-28T16:25:34.958Z,12.27
2019-02-28T16:28:07.232Z,12.77
2019-02-28T16:30:34.493Z,13.73
2019-02-28T16:33:02.989Z,11.43
2019-02-28T16:35:31.509Z,11.60
2019-02-28T16:38:00.299Z,10.57
2019-02-28T16:40:32.627Z,9.73
2019-02-28T16:43:01.078Z,14.77
2019-02-28T16:45:43.920Z,11.27
2019-02-28T16:48:12.630Z,11.17
2019-02-28T16:50:41.058Z,11.40
2019-02-28T16:53:15.042Z,14.83
2019-02-28T16:55:39.705Z,16.03
2019-02-28T16:58:08.148Z,11.43
2019-02-28T17:00:39.604Z,16.60
2019-02-28T17:03:07.402Z,16.50
2019-02-28T17:05:36.939Z,17.77
2019-02-28T17:08:06.816Z,15.47
2019-02-28T17:10:40.160Z,16.63
2019-02-28T17:13:14.752Z,11.43
2019-02-28T17:16:01.532Z,14.30
2019-02-28T17:18:28.743Z,14.20
2019-02-28T17:20:57.190Z,10.30
2019-02-28T17:23:26.085Z,16.40
2019-02-28T17:25:56.541Z,10.37
2019-02-28T17:28:26.738Z,11.07
2019-02-28T17:30:59.634Z,11.80
2019-02-28T17:33:28.497Z,13.43
2019-02-28T17:35:57.404Z,9.43
2019-02-28T17:38:25.900Z,11.93
2019-02-28T17:40:54.375Z,15.87
2019-02-28T17:43:24.432Z,12.93
2019-02-28T17:45:53.333Z,11.93
2019-02-28T17:48:56.342Z,14.47
2019-02-28T17:51:30.587Z,9.13
2019-02-28T17:54:20.823Z,9.67
2019-02-28T17:56:56.298Z,13.23
2019-02-28T17:59:45.617Z,11.43
2019-02-28T18:02:28.887Z,9.90
2019-02-28T18:05:05.899Z,8.33
2019-02-28T18:08:11.111Z,7.03
2019-02-28T18:11:03.646Z,7.47
2019-02-28T18:14:06.768Z,11.30
2019-02-28T18:16:58.648Z,8.73
2019-02-28T18:19:44.974Z,7.33
2019-02-28T18:22:19.721Z,8.57
2019-02-28T18:25:18.542Z,13.00
2019-02-28T18:27:59.252Z,6.33
2019-02-28T18:30:30.771Z,6.63
2019-02-28T18:32:59.194Z,6.47
2019-02-28T18:35:29.186Z,10.27
2019-02-28T18:38:00.810Z,6.33
2019-02-28T18:40:27.964Z,7.10
2019-02-28T18:42:56.517Z,9.70
2019-02-28T18:45:24.991Z,3.50
2019-02-28T18:47:53.443Z,5.77
2019-02-28T18:50:21.886Z,9.40
2019-02-28T18:52:50.331Z,10.63
2019-02-28T18:55:18.764Z,5.60
2019-02-28T18:57:47.226Z,10.30
2019-02-28T19:00:18.130Z,13.60
2019-02-28T19:02:46.558Z,7.53
2019-02-28T19:05:15.357Z,10.30
2019-02-28T19:07:43.865Z,7.67
2019-02-28T19:10:12.433Z,5.57
2019-02-28T19:12:40.889Z,7.70
2019-02-28T19:15:12.749Z,5.70
2019-02-28T19:17:41.200Z,6.17
2019-02-28T19:20:11.539Z,4.37
2019-02-28T19:22:40.376Z,5.07
2019-02-28T19:25:12.504Z,8.77
2019-02-28T19:27:41.293Z,5.03
2019-02-28T19:30:15.106Z,4.30
2019-02-28T19:32:43.700Z,4.63
2019-02-28T19:35:12.277Z,5.17
2019-02-28T19:37:40.790Z,2.53
2019-02-28T19:40:13.938Z,5.33
2019-02-28T19:42:42.721Z,6.83
2019-02-28T19:45:14.533Z,9.60
2019-02-28T19:47:42.997Z,8.83
2019-02-28T19:50:12.101Z,3.63
2019-02-28T19:52:40.561Z,6.30
2019-02-28T19:55:15.553Z,6.07
2019-02-28T19:57:44.067Z,7.90
2019-02-28T20:00:21.389Z,4.27
2019-02-28T20:02:49.908Z,6.67
2019-02-28T20:05:19.029Z,6.43
2019-02-28T20:07:47.458Z,4.07
2019-02-28T20:10:17.356Z,4.60
2019-02-28T20:12:45.841Z,7.40
2019-02-28T20:15:15.919Z,4.50
2019-02-28T20:17:44.796Z,4.63
2019-02-28T20:20:16.427Z,5.30
2019-02-28T20:22:45.041Z,7.83
2019-02-28T20:25:14.215Z,8.20
2019-02-28T20:27:42.661Z,7.07
2019-02-28T20:30:16.825Z,6.77
2019-02-28T20:32:45.271Z,7.80
2019-02-28T20:35:14.487Z,6.63
2019-02-28T20:37:43.248Z,3.10
2019-02-28T20:40:17.377Z,5.20
2019-02-28T20:42:45.873Z,3.00
2019-02-28T20:45:14.374Z,6.00
2019-02-28T20:47:42.825Z,9.90
2019-02-28T20:50:26.071Z,5.10
2019-02-28T20:52:54.829Z,8.00
2019-02-28T20:55:23.264Z,5.13
2019-02-28T20:57:51.706Z,5.30
2019-02-28T21:00:21.777Z,6.70
2019-02-28T21:02:50.221Z,5.13
2019-02-28T21:05:18.984Z,4.80
2019-02-28T21:07:47.418Z,4.07
2019-02-28T21:10:16.298Z,6.07
2019-02-28T21:12:44.738Z,5.30
2019-02-28T21:15:14.695Z,5.07
2019-02-28T21:17:43.144Z,6.40
2019-02-28T21:20:13.738Z,3.73
2019-02-28T21:22:42.324Z,4.33
2019-02-28T21:25:15.983Z,8.27
2019-02-28T21:27:44.404Z,2.80
2019-02-28T21:30:26.818Z,6.47
2019-02-28T21:32:55.286Z,6.70
2019-02-28T21:35:25.558Z,4.83
2019-02-28T21:37:54.021Z,3.70
2019-02-28T21:40:23.277Z,2.63
2019-02-28T21:42:51.829Z,5.17
2019-02-28T21:45:22.837Z,2.33
2019-02-28T21:47:51.352Z,7.07
2019-02-28T21:50:20.281Z,5.27
2019-02-28T21:52:49.073Z,5.73
2019-02-28T21:55:18.142Z,5.37
2019-02-28T21:57:46.560Z,5.47
2019-02-28T22:00:18.102Z,4.70
2019-02-28T22:02:46.537Z,1.93
2019-02-28T22:05:15.260Z,3.87
2019-02-28T22:07:44.640Z,4.97
2019-02-28T22:10:14.593Z,5.50
2019-02-28T22:12:43.004Z,6.33
2019-02-28T22:15:17.117Z,7.50
2019-02-28T22:17:45.634Z,5.40
2019-02-28T22:20:14.856Z,4.97
2019-02-28T22:22:43.455Z,3.80
2019-02-28T22:25:16.478Z,1.83
2019-02-28T22:27:45.195Z,5.53
2019-02-28T22:30:36.221Z,3.87
2019-02-28T22:33:23.007Z,6.50
2019-02-28T22:35:55.808Z,8.13
2019-02-28T22:38:24.240Z,2.70
2019-02-28T22:40:52.768Z,4.03
2019-02-28T22:43:21.198Z,10.13
2019-02-28T22:45:49.647Z,2.60
2019-02-28T22:48:18.083Z,3.00
2019-02-28T22:50:46.871Z,5.97
2019-02-28T22:53:15.315Z,3.80
2019-02-28T22:55:43.752Z,5.13
2019-02-28T22:58:12.459Z,2.83
2019-02-28T23:01:03.378Z,5.13
2019-02-28T23:03:34.250Z,6.00
2019-02-28T23:06:03.178Z,4.17
2019-02-28T23:08:31.614Z,4.97
2019-02-28T23:11:00.102Z,6.77
2019-02-28T23:13:28.541Z,6.37
2019-02-28T23:15:57.040Z,8.57
2019-02-28T23:18:25.746Z,5.30
2019-02-28T23:20:54.185Z,6.30
2019-02-28T23:23:22.637Z,9.90
2019-02-28T23:25:51.114Z,7.90
2019-02-28T23:28:31.442Z,5.43
2019-02-28T23:31:11.945Z,5.50
2019-02-28T23:33:40.374Z,4.60
2019-02-28T23:36:08.830Z,5.20
2019-02-28T23:38:37.258Z,6.33
2019-02-28T23:41:06.168Z,5.03
2019-02-28T23:43:34.613Z,4.67
2019-02-28T23:46:03.054Z,2.57
2019-02-28T23:48:31.863Z,6.83
2019-02-28T23:51:00.288Z,6.40
2019-02-28T23:53:29.149Z,5.13
2019-02-28T23:55:57.613Z,2.27
2019-02-28T23:58:26.050Z,6.10
